Time;durP1;ratioP1;P1;durP2;ratioP2;P2;SDS_P1;SDS_P2;PMS_P1;PMS_P2;Temp;Humidity;BMP_temperature;BMP_pressure;BME280_temperature;BME280_humidity;BME280_pressure;Samples;Min_cycle;Max_cycle;Signal;HPM_P1;HPM_P2
2022/03/20 00:00:22;;;;;;;;;5.33;2.00;;;;;7.81;43.17;102781.59;5076447;27;45289;-71
2022/03/20 00:02:48;;;;;;;;;3.00;3.00;;;;;7.85;43.81;102794.78;5080221;27;45506;-70
2022/03/20 00:05:14;;;;;;;;;2.67;2.00;;;;;7.88;43.60;102808.84;5076939;27;45222;-73
2022/03/20 00:07:41;;;;;;;;;2.67;2.67;;;;;7.87;43.19;102799.19;5096784;27;47192;-74
2022/03/20 00:10:08;;;;;;;;;1.67;1.67;;;;;7.86;43.90;102795.69;5097109;27;45377;-71
2022/03/20 00:12:37;;;;;;;;;2.00;2.00;;;;;7.84;43.99;102802.63;5084753;27;46332;-71
2022/03/20 00:15:03;;;;;;;;;2.00;2.00;;;;;7.72;43.96;102777.03;5076922;27;45213;-71
2022/03/20 00:17:29;;;;;;;;;1.67;1.00;;;;;7.80;44.47;102790.31;5077691;28;47943;-71
2022/03/20 00:19:54;;;;;;;;;2.33;2.00;;;;;7.69;44.66;102782.22;5079905;27;45323;-71
2022/03/20 00:22:20;;;;;;;;;1.33;1.33;;;;;7.79;44.42;102791.16;5079609;27;45475;-71
2022/03/20 00:24:46;;;;;;;;;6.33;2.00;;;;;7.62;44.33;102764.56;5080148;27;45315;-71
2022/03/20 00:27:12;;;;;;;;;1.00;1.00;;;;;7.64;44.52;102770.75;5079355;27;45459;-71
2022/03/20 00:29:39;;;;;;;;;3.00;1.00;;;;;7.74;44.71;102792.78;5078882;28;45523;-71
2022/03/20 00:32:06;;;;;;;;;3.00;2.33;;;;;7.72;44.67;102795.38;5079720;28;45417;-71
2022/03/20 00:34:32;;;;;;;;;3.00;3.00;;;;;7.60;44.36;102772.41;5079952;27;45451;-71
2022/03/20 00:36:57;;;;;;;;;4.67;2.00;;;;;7.63;45.08;102774.22;5079464;28;45576;-71
2022/03/20 00:39:23;;;;;;;;;1.67;1.67;;;;;7.67;45.04;102782.19;5079683;27;45452;-70
2022/03/20 00:41:48;;;;;;;;;2.33;1.00;;;;;7.59;45.00;102762.75;5079966;27;45481;-70
2022/03/20 00:44:13;;;;;;;;;3.33;2.00;;;;;7.58;45.43;102762.72;5080053;28;45194;-71
2022/03/20 00:46:39;;;;;;;;;2.00;2.00;;;;;7.56;45.71;102759.19;5079270;27;46208;-71
2022/03/20 00:49:05;;;;;;;;;2.33;2.33;;;;;7.36;45.62;102725.53;5079664;27;45339;-71
2022/03/20 00:51:31;;;;;;;;;4.67;3.67;;;;;7.13;46.01;102681.38;5079549;27;45326;-71
2022/03/20 00:53:56;;;;;;;;;8.00;5.00;;;;;7.47;45.93;102737.16;5078859;27;45316;-71
2022/03/20 00:56:22;;;;;;;;;7.00;3.67;;;;;7.24;45.73;102693.84;5079030;28;45424;-71
2022/03/20 00:58:47;;;;;;;;;3.67;3.67;;;;;7.48;45.39;102733.69;5078508;27;45414;-71
2022/03/20 01:01:14;;;;;;;;;6.67;4.00;;;;;7.40;45.68;102719.53;5079448;28;45789;-71
2022/03/20 01:03:43;;;;;;;;;3.00;3.00;;;;;7.48;45.71;102738.94;5078893;27;45478;-71
2022/03/20 01:06:09;;;;;;;;;6.00;4.00;;;;;7.31;45.79;102695.75;5079013;27;45277;-71
2022/03/20 01:08:35;;;;;;;;;5.00;4.33;;;;;7.45;45.61;102714.38;5078849;27;45442;-71
2022/03/20 01:11:02;;;;;;;;;10.00;5.00;;;;;7.40;45.61;102709.03;5079123;27;45209;-71
2022/03/20 01:13:29;;;;;;;;;9.00;4.00;;;;;7.47;45.56;102716.19;5078782;27;45477;-71
2022/03/20 01:15:55;;;;;;;;;6.00;4.33;;;;;7.32;45.76;102697.53;5078537;27;45493;-71
2022/03/20 01:18:20;;;;;;;;;8.67;4.67;;;;;7.38;46.34;102718.63;5077973;27;45557;-70
2022/03/20 01:20:45;;;;;;;;;6.33;6.00;;;;;7.32;46.33;102708.88;5079306;27;45772;-70
2022/03/20 01:23:12;;;;;;;;;4.67;1.00;;;;;7.08;46.39;102662.03;5078963;28;45428;-70
2022/03/20 01:25:39;;;;;;;;;6.67;5.00;;;;;7.29;46.77;102700.97;5079035;27;46613;-71
2022/03/20 01:28:04;;;;;;;;;7.00;6.33;;;;;7.29;47.03;102700.06;5077731;27;45540;-71
2022/03/20 01:30:30;;;;;;;;;9.00;8.00;;;;;7.32;46.83;102689.66;5079041;28;45411;-70
2022/03/20 01:32:55;;;;;;;;;9.00;7.67;;;;;7.21;46.97;102678.94;5078985;27;45387;-73
2022/03/20 01:35:21;;;;;;;;;9.00;8.33;;;;;7.12;47.40;102674.38;5078654;28;46344;-71
2022/03/20 01:37:46;;;;;;;;;6.67;6.67;;;;;7.17;47.22;102676.22;5078923;27;45539;-71
2022/03/20 01:40:11;;;;;;;;;9.00;8.00;;;;;7.15;47.50;102678.81;5078791;28;45335;-71
2022/03/20 01:42:40;;;;;;;;;10.33;8.00;;;;;7.15;47.74;102673.56;5079214;28;45348;-71
2022/03/20 01:45:19;;;;;;;;;8.00;8.00;;;;;7.10;47.62;102667.31;5078326;27;45371;-71
2022/03/20 01:47:47;;;;;;;;;9.67;8.33;;;;;7.01;48.55;102669.75;5078437;27;45423;-71
2022/03/20 01:50:14;;;;;;;;;12.67;8.00;;;;;6.93;48.40;102652.13;5078876;27;45362;-71
2022/03/20 01:52:40;;;;;;;;;9.00;8.33;;;;;7.02;48.70;102666.28;5078642;27;45487;-71
2022/03/20 01:55:09;;;;;;;;;10.67;8.00;;;;;6.91;48.13;102651.22;5078734;28;46746;-71
2022/03/20 01:57:37;;;;;;;;;11.00;8.00;;;;;6.94;48.77;102652.97;5078181;27;45433;-71
2022/03/20 02:00:05;;;;;;;;;15.33;8.00;;;;;6.59;48.39;102598.97;5078859;27;45475;-71
2022/03/20 02:02:30;;;;;;;;;7.67;7.67;;;;;6.51;48.95;102576.97;5077894;27;45311;-71
2022/03/20 02:04:56;;;;;;;;;10.00;9.00;;;;;6.93;48.76;102646.00;5077952;28;46121;-71
2022/03/20 02:07:22;;;;;;;;;14.67;10.00;;;;;6.74;48.48;102605.41;5078140;28;45479;-70
2022/03/20 02:09:48;;;;;;;;;11.33;8.00;;;;;6.91;49.03;102624.13;5078635;28;45426;-70
2022/03/20 02:12:14;;;;;;;;;9.00;9.00;;;;;6.91;49.32;102625.03;5078709;27;45375;-70
2022/03/20 02:14:40;;;;;;;;;10.33;9.00;;;;;6.84;49.29;102619.59;5077452;27;45253;-70
2022/03/20 02:17:07;;;;;;;;;10.67;8.67;;;;;6.92;49.33;102626.75;5089334;27;45387;-70
2022/03/20 02:19:36;;;;;;;;;11.67;10.00;;;;;6.60;49.19;102571.06;5077583;27;45269;-70
2022/03/20 02:22:03;;;;;;;;;10.00;9.00;;;;;6.94;49.16;102624.19;5077775;27;45520;-71
2022/03/20 02:24:30;;;;;;;;;9.67;8.00;;;;;6.94;49.23;102617.22;5077910;27;46231;-70
2022/03/20 02:27:09;;;;;;;;;10.33;9.00;;;;;6.92;49.20;102612.78;5077406;27;45223;-71
2022/03/20 02:29:35;;;;;;;;;10.33;6.67;;;;;6.83;48.91;102600.38;5075752;28;45413;-70
2022/03/20 02:32:02;;;;;;;;;8.67;8.33;;;;;6.82;49.66;102598.59;5077676;28;45498;-71
2022/03/20 02:34:30;;;;;;;;;7.67;7.67;;;;;6.85;49.40;102603.03;5077016;28;46077;-71
2022/03/20 02:36:57;;;;;;;;;11.00;9.00;;;;;6.82;49.73;102605.59;5076956;27;45629;-71
2022/03/20 02:39:24;;;;;;;;;10.33;9.00;;;;;6.80;49.83;102598.56;5077673;27;45500;-71
2022/03/20 02:41:51;;;;;;;;;10.00;7.00;;;;;6.73;49.90;102585.31;5078822;27;45535;-71
2022/03/20 02:44:17;;;;;;;;;14.67;10.33;;;;;6.77;50.27;102589.78;5077740;28;46270;-70
2022/03/20 02:46:43;;;;;;;;;8.67;8.00;;;;;6.70;50.84;102585.25;5077661;27;45370;-70
2022/03/20 02:49:10;;;;;;;;;7.00;7.00;;;;;6.69;50.28;102580.84;5077629;28;45469;-71
2022/03/20 02:51:36;;;;;;;;;9.00;7.00;;;;;6.62;51.23;102582.44;5077633;27;45186;-70
2022/03/20 02:54:07;;;;;;;;;11.33;6.67;;;;;6.62;50.11;102575.50;5077290;28;45292;-71
2022/03/20 02:56:35;;;;;;;;;8.67;5.00;;;;;6.66;49.90;102581.66;5077358;28;45643;-73
2022/03/20 02:59:02;;;;;;;;;8.33;7.00;;;;;6.62;50.59;102566.72;5077232;27;45305;-71
2022/03/20 03:01:28;;;;;;;;;9.00;8.00;;;;;6.62;50.74;102572.88;5077149;27;45342;-71
2022/03/20 03:03:54;;;;;;;;;10.00;6.67;;;;;6.30;50.81;102511.91;5077323;28;45347;-71
2022/03/20 03:06:20;;;;;;;;;13.33;8.00;;;;;6.55;51.91;102560.50;5064807;27;45533;-71
2022/03/20 03:11:29;;;;;;;;;10.00;8.33;;;;;6.47;51.12;102556.78;5077646;28;45439;-71
2022/03/20 03:13:55;;;;;;;;;7.67;7.67;;;;;6.47;51.73;102548.06;5077572;27;45449;-71
2022/03/20 03:16:20;;;;;;;;;13.00;9.00;;;;;6.41;51.72;102551.44;5077371;27;45413;-71
2022/03/20 03:18:47;;;;;;;;;9.00;9.00;;;;;6.39;52.29;102547.88;5076693;27;45967;-71
2022/03/20 03:21:14;;;;;;;;;8.00;8.00;;;;;6.35;52.52;102544.31;5077023;27;45427;-72
2022/03/20 03:23:40;;;;;;;;;14.00;9.67;;;;;6.32;51.82;102538.09;5076942;27;47176;-71
2022/03/20 03:26:07;;;;;;;;;10.00;9.00;;;;;6.28;51.99;102524.97;5078009;27;45310;-71
2022/03/20 03:28:36;;;;;;;;;13.33;11.33;;;;;6.26;52.58;102516.19;5077074;27;45438;-71
2022/03/20 03:31:11;;;;;;;;;13.33;11.33;;;;;6.33;52.41;102527.72;5076932;28;45588;-70
2022/03/20 03:35:41;;;;;;;;;10.67;9.00;;;;;6.27;52.57;102514.47;5077091;27;45343;-70
2022/03/20 03:36:23;;;;;;;;;12.33;10.00;;;;;6.30;52.97;102531.97;5076843;28;45272;-70
2022/03/20 03:38:48;;;;;;;;;14.67;13.33;;;;;6.11;53.52;102510.59;5077241;28;45494;-71
2022/03/20 03:41:14;;;;;;;;;14.67;10.00;;;;;6.19;53.03;102524.75;5075468;28;45467;-70
2022/03/20 03:43:39;;;;;;;;;16.67;13.67;;;;;6.11;53.82;102507.97;5076982;27;45438;-70
2022/03/20 03:46:04;;;;;;;;;16.00;13.67;;;;;6.09;54.10;102517.53;5076456;27;45239;-70
2022/03/20 03:48:30;;;;;;;;;15.67;13.67;;;;;6.14;53.16;102528.09;5076848;27;45454;-70
2022/03/20 03:50:55;;;;;;;;;20.67;15.00;;;;;6.13;53.00;102522.00;5076812;27;45488;-70
2022/03/20 03:53:22;;;;;;;;;14.33;13.00;;;;;6.15;52.65;102524.66;5079244;27;46345;-69
2022/03/20 03:55:50;;;;;;;;;11.67;10.00;;;;;6.13;53.44;102510.63;5079862;28;45450;-69
2022/03/20 03:58:15;;;;;;;;;13.67;13.00;;;;;6.09;53.70;102520.16;5079927;27;45491;-71
2022/03/20 04:00:43;;;;;;;;;18.00;14.67;;;;;6.06;53.16;102505.25;5080821;27;45345;-70
2022/03/20 04:03:08;;;;;;;;;16.00;15.00;;;;;6.01;53.64;102500.75;5080052;27;46621;-71
2022/03/20 04:05:34;;;;;;;;;15.00;15.00;;;;;6.05;53.73;102508.72;5080024;27;45299;-70
2022/03/20 04:08:00;;;;;;;;;12.67;9.67;;;;;5.86;53.49;102478.59;5080147;27;45297;-71
2022/03/20 04:10:25;;;;;;;;;14.00;13.00;;;;;5.93;53.26;102503.16;5080519;27;45305;-70
2022/03/20 04:12:51;;;;;;;;;18.33;14.67;;;;;5.88;54.05;102494.31;5079863;27;46318;-70
2022/03/20 04:15:21;;;;;;;;;17.00;13.00;;;;;5.95;54.35;102511.03;5080154;27;45325;-71
2022/03/20 04:17:47;;;;;;;;;8.67;8.67;;;;;5.95;53.66;102508.44;5079489;27;45262;-69
2022/03/20 04:20:13;;;;;;;;;22.00;15.00;;;;;5.86;54.10;102494.28;5080602;27;45337;-68
2022/03/20 04:23:42;;;;;;;;;18.00;15.00;;;;;5.87;54.28;102492.56;5079394;27;46679;-69
2022/03/20 04:25:27;;;;;;;;;22.33;18.00;;;;;5.85;54.29;102504.69;5079181;28;45431;-69
2022/03/20 04:27:56;;;;;;;;;18.33;13.33;;;;;5.65;54.20;102463.25;5079321;27;45332;-71
2022/03/20 04:30:26;;;;;;;;;14.33;13.33;;;;;5.83;54.00;102498.56;5080158;27;45355;-72
2022/03/20 04:32:53;;;;;;;;;18.00;16.67;;;;;5.80;54.61;102504.59;5079821;27;45253;-71
2022/03/20 04:35:22;;;;;;;;;15.00;12.67;;;;;5.78;53.95;102495.81;5079652;27;45974;-71
2022/03/20 04:37:48;;;;;;;;;23.33;15.33;;;;;5.78;54.39;102497.53;5079819;27;45248;-71
2022/03/20 04:40:13;;;;;;;;;19.33;15.33;;;;;5.77;54.47;102491.44;5079640;27;45392;-71
2022/03/20 04:42:39;;;;;;;;;14.33;11.67;;;;;5.79;54.01;102502.81;5079699;27;46222;-71
2022/03/20 04:45:05;;;;;;;;;24.67;17.00;;;;;5.70;54.38;102479.94;5079739;27;45295;-71
2022/03/20 04:58:29;;;;;;;;;23.67;19.67;;;;;5.81;54.01;102489.78;5077059;28;45297;-71
2022/03/20 05:00:55;;;;;;;;;22.67;19.00;;;;;5.68;54.36;102476.41;5080541;27;45447;-71
2022/03/20 05:03:21;;;;;;;;;19.67;15.33;;;;;5.79;53.79;102479.28;5077659;27;45256;-71
2022/03/20 05:05:47;;;;;;;;;21.67;16.33;;;;;5.49;53.89;102425.41;5078785;27;45466;-72
2022/03/20 05:08:13;;;;;;;;;27.67;20.00;;;;;5.81;54.60;102481.94;5078778;27;45329;-72
2022/03/20 05:13:22;;;;;;;;;22.67;19.33;;;;;5.71;54.40;102458.19;5081937;27;45399;-72
2022/03/20 05:15:48;;;;;;;;;24.00;18.33;;;;;5.77;54.43;102461.81;5099765;27;45339;-72
2022/03/20 05:18:14;;;;;;;;;15.67;15.67;;;;;5.75;54.22;102470.50;5087624;27;45541;-71
2022/03/20 05:20:41;;;;;;;;;25.00;19.00;;;;;5.73;54.25;102458.22;5080228;27;45526;-71
2022/03/20 05:23:06;;;;;;;;;20.67;18.00;;;;;5.51;53.62;102426.31;5078865;27;45713;-71
2022/03/20 05:25:31;;;;;;;;;20.00;19.67;;;;;5.73;54.94;102473.91;5079411;27;45303;-71
2022/03/20 05:27:58;;;;;;;;;24.00;19.67;;;;;5.62;54.65;102457.06;5091803;27;45441;-71
2022/03/20 05:30:24;;;;;;;;;27.00;23.00;;;;;5.60;54.59;102458.75;5099636;27;45304;-71
2022/03/20 05:32:50;;;;;;;;;26.00;20.33;;;;;5.54;54.89;102455.13;5099144;27;46130;-69
2022/03/20 05:35:16;;;;;;;;;23.67;20.33;;;;;5.62;54.70;102467.50;5099335;27;45179;-69
2022/03/20 05:37:42;;;;;;;;;23.67;20.33;;;;;5.63;55.04;102464.06;5097964;27;45454;-70
2022/03/20 05:40:08;;;;;;;;;27.00;20.67;;;;;5.56;55.29;102455.19;5099137;27;45337;-70
2022/03/20 05:42:36;;;;;;;;;22.67;20.67;;;;;5.51;55.19;102451.56;5093155;27;45465;-70
2022/03/20 05:45:02;;;;;;;;;30.33;20.00;;;;;5.53;55.16;102452.47;5099238;27;45424;-70
2022/03/20 05:47:31;;;;;;;;;31.33;20.00;;;;;5.53;55.51;102452.47;5089950;27;45395;-70
2022/03/20 05:49:57;;;;;;;;;20.67;19.33;;;;;5.48;55.09;102444.53;5079188;27;45245;-70
2022/03/20 05:52:23;;;;;;;;;32.33;23.00;;;;;5.52;55.05;102451.63;5078483;27;46286;-70
2022/03/20 05:54:48;;;;;;;;;24.00;22.67;;;;;5.47;54.74;102445.38;5084626;27;45374;-70
2022/03/20 05:59:58;;;;;;;;;21.67;20.00;;;;;5.57;55.39;102463.03;5078899;28;45414;-70
2022/03/20 06:02:24;;;;;;;;;23.00;18.67;;;;;5.45;55.32;102447.06;5077446;27;45447;-70
2022/03/20 06:04:49;;;;;;;;;26.33;20.00;;;;;5.58;55.55;102461.34;5078286;27;45316;-70
2022/03/20 06:07:15;;;;;;;;;25.00;19.00;;;;;5.42;54.76;102439.16;5080564;27;45810;-70
2022/03/20 06:09:40;;;;;;;;;28.00;26.33;;;;;5.46;55.69;102443.63;5082891;27;45467;-72
2022/03/20 06:12:07;;;;;;;;;31.00;24.33;;;;;5.35;55.72;102424.16;5095172;27;46223;-70
2022/03/20 06:14:34;;;;;;;;;24.00;23.00;;;;;5.54;55.76;102444.69;5077870;28;45422;-70
2022/03/20 06:17:00;;;;;;;;;25.33;22.33;;;;;5.51;55.81;102433.28;5075124;27;46014;-70
2022/03/20 06:19:25;;;;;;;;;31.67;28.00;;;;;5.56;55.40;102431.66;5078253;27;45540;-70
2022/03/20 06:21:51;;;;;;;;;29.67;23.67;;;;;5.63;55.78;102443.16;5077147;27;46195;-70
2022/03/20 06:24:16;;;;;;;;;27.67;25.33;;;;;5.67;55.12;102440.66;5078098;28;45347;-69
2022/03/20 06:26:41;;;;;;;;;30.00;25.00;;;;;5.58;55.02;102416.94;5077560;28;45198;-69
2022/03/20 06:29:07;;;;;;;;;25.67;22.33;;;;;5.51;54.87;102384.53;5077774;27;45652;-69
2022/03/20 06:31:33;;;;;;;;;28.00;24.67;;;;;5.78;54.99;102425.25;5077351;28;46154;-70
2022/03/20 06:33:59;;;;;;;;;30.67;25.00;;;;;5.88;54.93;102435.09;5077389;27;45498;-69
2022/03/20 06:36:25;;;;;;;;;34.00;25.33;;;;;5.78;54.55;102409.56;5078133;27;45563;-69
2022/03/20 06:38:51;;;;;;;;;31.67;28.33;;;;;5.99;55.03;102434.47;5077917;27;45338;-70
2022/03/20 06:41:18;;;;;;;;;28.67;20.33;;;;;5.97;54.54;102415.22;5077669;27;45399;-70
2022/03/20 06:43:43;;;;;;;;;35.67;27.67;;;;;6.16;54.59;102424.41;5077116;27;45301;-70
2022/03/20 06:46:09;;;;;;;;;25.00;21.67;;;;;6.18;54.33;102430.56;5077699;27;45496;-69
2022/03/20 06:48:34;;;;;;;;;27.33;25.33;;;;;6.18;54.38;102427.94;5077938;27;45517;-69
2022/03/20 06:51:00;;;;;;;;;29.67;24.67;;;;;6.17;54.53;102418.31;5077406;28;46425;-69
2022/03/20 06:53:26;;;;;;;;;30.00;23.67;;;;;6.33;54.01;102386.44;5076348;28;45333;-70
2022/03/20 06:55:52;;;;;;;;;34.33;27.00;;;;;6.66;52.96;102424.63;5077769;27;45580;-69
2022/03/20 06:58:18;;;;;;;;;29.67;23.67;;;;;6.72;52.75;102422.13;5081407;27;45521;-70
2022/03/20 07:00:46;;;;;;;;;25.00;21.67;;;;;6.76;53.05;102434.41;5076512;27;45298;-70
2022/03/20 07:03:11;;;;;;;;;34.00;31.00;;;;;6.74;52.66;102414.31;5076746;27;45332;-70
2022/03/20 07:05:37;;;;;;;;;30.33;27.33;;;;;6.82;52.67;102410.09;5077103;28;46973;-70
2022/03/20 07:08:04;;;;;;;;;31.00;28.33;;;;;6.97;52.70;102409.50;5077127;27;45294;-70
2022/03/20 07:10:30;;;;;;;;;32.00;27.67;;;;;7.02;52.28;102414.84;5075982;28;47377;-69
2022/03/20 07:15:43;;;;;;;;;31.67;27.00;;;;;7.15;51.80;102411.59;5077189;28;45405;-70
2022/03/20 07:18:12;;;;;;;;;39.00;31.33;;;;;7.18;51.95;102406.41;5075418;28;45509;-70
2022/03/20 07:20:39;;;;;;;;;38.33;29.67;;;;;7.19;51.69;102402.03;5077018;27;46393;-70
2022/03/20 07:23:07;;;;;;;;;37.00;30.67;;;;;7.22;51.40;102402.09;5076466;27;45539;-69
2022/03/20 07:31:01;;;;;;;;;35.67;30.33;;;;;7.24;51.49;102392.56;5080210;28;45760;-70
2022/03/20 07:33:27;;;;;;;;;35.00;29.67;;;;;7.18;51.39;102382.84;5080233;27;45279;-70
2022/03/20 07:35:52;;;;;;;;;38.67;33.00;;;;;7.13;51.37;102380.16;5080156;27;45384;-70
2022/03/20 07:38:17;;;;;;;;;39.67;33.33;;;;;6.96;51.44;102350.16;5080485;27;45305;-70
2022/03/20 07:40:43;;;;;;;;;33.67;27.67;;;;;7.07;51.24;102381.75;5079761;27;45544;-70
2022/03/20 07:43:08;;;;;;;;;42.67;33.67;;;;;7.14;51.70;102399.34;5080120;28;45351;-69
2022/03/20 07:45:34;;;;;;;;;44.00;36.00;;;;;7.06;51.99;102377.41;5080902;28;45708;-70
2022/03/20 07:48:00;;;;;;;;;37.67;33.00;;;;;7.11;51.85;102373.97;5080110;28;45554;-69
2022/03/20 07:50:26;;;;;;;;;43.00;35.67;;;;;7.28;51.70;102397.00;5079480;27;47123;-69
2022/03/20 07:52:51;;;;;;;;;39.33;31.00;;;;;7.25;51.88;102392.56;5080028;27;45704;-69
2022/03/20 07:55:17;;;;;;;;;40.67;32.33;;;;;7.35;51.93;102400.59;5079876;28;45416;-69
2022/03/20 07:57:43;;;;;;;;;37.00;31.33;;;;;7.40;51.61;102394.56;5080355;27;45206;-69
2022/03/20 08:00:09;;;;;;;;;48.33;33.67;;;;;7.39;51.52;102395.44;5079612;27;47435;-69
2022/03/20 08:02:35;;;;;;;;;44.67;34.67;;;;;7.39;51.55;102389.31;5079416;27;45415;-69
2022/03/20 08:05:01;;;;;;;;;35.67;32.67;;;;;7.53;51.59;102386.94;5079741;28;45274;-69
2022/03/20 08:07:26;;;;;;;;;40.00;33.67;;;;;7.52;51.20;102380.78;5079569;27;45310;-69
2022/03/20 08:09:51;;;;;;;;;38.00;34.67;;;;;7.48;51.29;102364.13;5078462;28;46247;-69
2022/03/20 08:12:17;;;;;;;;;41.33;36.33;;;;;7.51;51.20;102368.56;5079566;28;45241;-69
2022/03/20 08:14:43;;;;;;;;;46.67;36.33;;;;;7.58;51.45;102370.41;5080033;28;45341;-69
2022/03/20 08:17:09;;;;;;;;;48.33;37.00;;;;;7.67;50.99;102362.69;5079654;28;45881;-69
2022/03/20 08:19:34;;;;;;;;;43.00;34.33;;;;;7.71;50.59;102326.03;5079216;27;45317;-69
2022/03/20 08:22:03;;;;;;;;;47.33;37.00;;;;;8.12;50.55;102358.09;5079553;28;45337;-69
2022/03/20 08:24:28;;;;;;;;;44.67;36.33;;;;;8.21;50.13;102359.94;5078567;27;45494;-70
2022/03/20 08:26:54;;;;;;;;;44.00;37.33;;;;;8.33;50.07;102375.84;5078756;28;45603;-71
2022/03/20 08:29:20;;;;;;;;;40.00;34.67;;;;;8.48;49.86;102374.31;5077527;27;47133;-71
2022/03/20 08:31:47;;;;;;;;;43.67;36.67;;;;;8.42;50.03;102361.09;5081491;27;45441;-71
2022/03/20 08:34:15;;;;;;;;;49.00;37.67;;;;;8.35;49.93;102370.59;5085685;27;45475;-71
2022/03/20 08:36:41;;;;;;;;;41.33;34.33;;;;;8.35;50.56;102374.13;5079566;27;45488;-72
2022/03/20 08:39:07;;;;;;;;;38.67;26.00;;;;;8.36;50.52;102365.41;5078811;27;46653;-71
2022/03/20 08:41:33;;;;;;;;;44.00;37.00;;;;;8.45;50.68;102367.31;5078974;28;45384;-71
2022/03/20 08:43:58;;;;;;;;;50.00;36.67;;;;;8.46;50.48;102368.16;5079019;27;45295;-71
2022/03/20 08:46:27;;;;;;;;;45.67;37.00;;;;;8.43;50.72;102383.84;5079480;28;45475;-74
2022/03/20 08:48:52;;;;;;;;;49.00;40.00;;;;;8.43;50.80;102373.34;5088108;27;45571;-74
2022/03/20 08:51:18;;;;;;;;;46.33;38.33;;;;;8.10;51.06;102316.94;5078992;28;45525;-73
2022/03/20 08:53:43;;;;;;;;;47.00;37.00;;;;;8.52;51.33;102379.63;5079174;27;45718;-73
2022/03/20 08:56:09;;;;;;;;;46.67;37.00;;;;;8.43;51.41;102368.97;5079313;28;45376;-74
2022/03/20 08:58:35;;;;;;;;;46.33;39.33;;;;;8.50;51.59;102375.22;5078664;27;48275;-75
2022/03/20 09:01:00;;;;;;;;;43.33;37.00;;;;;8.59;51.85;102367.44;5078881;28;45451;-74
2022/03/20 09:03:25;;;;;;;;;52.67;41.00;;;;;8.76;51.52;102382.50;5078688;28;45470;-73
2022/03/20 09:05:51;;;;;;;;;47.67;38.00;;;;;8.84;51.56;102373.88;5078935;27;45307;-73
2022/03/20 09:08:16;;;;;;;;;48.33;39.33;;;;;9.09;51.64;102370.59;5078258;28;46270;-74
2022/03/20 09:10:42;;;;;;;;;47.00;33.00;;;;;9.36;50.96;102365.59;5078723;27;45409;-77
2022/03/20 09:13:08;;;;;;;;;45.67;36.00;;;;;9.68;50.69;102377.22;5059063;28;45355;-77
2022/03/20 09:15:33;;;;;;;;;47.67;37.67;;;;;9.67;50.82;102370.19;5059193;28;45139;-78
2022/03/20 09:20:46;;;;;;;;;50.33;38.00;;;;;9.23;52.06;102364.59;5078525;28;45332;-77
2022/03/20 09:23:13;;;;;;;;;49.33;38.00;;;;;9.30;51.89;102368.16;5078292;27;45425;-78
2022/03/20 09:25:39;;;;;;;;;46.67;37.00;;;;;9.28;52.49;102369.91;5083545;27;45345;-76
2022/03/20 09:28:07;;;;;;;;;48.33;38.33;;;;;9.21;52.66;102378.63;5077686;27;46192;-74
2022/03/20 09:30:33;;;;;;;;;48.33;40.00;;;;;9.23;52.53;102383.00;5078620;27;45376;-74
2022/03/20 09:33:01;;;;;;;;;48.33;38.67;;;;;9.13;52.75;102373.25;5078329;27;45270;-74
2022/03/20 09:35:27;;;;;;;;;50.33;40.33;;;;;9.21;53.52;102379.47;5078160;27;45560;-73
2022/03/20 09:37:54;;;;;;;;;45.00;37.33;;;;;9.11;52.78;102368.88;5077216;28;46178;-74
2022/03/20 09:40:22;;;;;;;;;46.33;40.00;;;;;9.02;54.17;102369.69;5076518;27;45434;-73
2022/03/20 09:42:48;;;;;;;;;49.33;39.33;;;;;8.99;53.97;102360.00;5077402;27;45364;-72
2022/03/20 09:45:17;;;;;;;;;59.00;42.67;;;;;9.05;54.70;102359.19;5089200;27;45497;-69
2022/03/20 09:47:43;;;;;;;;;49.00;38.67;;;;;9.07;54.43;102353.06;5072955;28;45321;-72
2022/03/20 09:50:10;;;;;;;;;54.00;42.67;;;;;8.99;53.74;102343.34;5076157;27;45905;-73
2022/03/20 09:52:38;;;;;;;;;63.33;47.33;;;;;9.05;54.03;102354.81;5076854;28;45436;-73
2022/03/20 09:55:05;;;;;;;;;55.33;43.00;;;;;9.11;53.92;102382.03;5077524;28;45324;-72
2022/03/20 09:57:30;;;;;;;;;58.67;45.33;;;;;8.95;54.74;102373.09;5077237;27;47583;-72
2022/03/20 09:59:57;;;;;;;;;62.67;46.00;;;;;9.00;54.44;102377.53;5077920;28;45320;-72
2022/03/20 10:02:29;;;;;;;;;55.67;43.33;;;;;9.09;54.54;102383.72;5078016;27;45435;-74
2022/03/20 10:05:07;;;;;;;;;55.67;45.67;;;;;9.10;54.12;102377.63;5074670;28;45286;-72
2022/03/20 10:07:35;;;;;;;;;58.33;46.33;;;;;9.06;54.63;102369.72;5058095;28;46512;-72
2022/03/20 10:10:12;;;;;;;;;60.33;47.33;;;;;9.21;53.63;102387.38;5065975;28;45311;-71
2022/03/20 10:12:44;;;;;;;;;64.00;47.33;;;;;9.22;53.82;102382.97;5078103;28;45321;-71
2022/03/20 10:15:26;;;;;;;;;61.67;46.33;;;;;9.23;54.31;102374.22;5077155;27;45400;-71
2022/03/20 10:18:14;;;;;;;;;57.33;44.67;;;;;9.22;53.45;102386.50;5076837;28;46492;-71
2022/03/20 10:20:44;;;;;;;;;61.00;48.33;;;;;9.21;54.27;102386.50;5077501;27;45416;-73
2022/03/20 10:23:28;;;;;;;;;59.00;44.67;;;;;9.23;53.93;102390.88;5075670;28;45451;-73
2022/03/20 10:25:54;;;;;;;;;61.00;48.00;;;;;9.10;53.89;102382.88;5077171;28;45389;-72
2022/03/20 10:28:19;;;;;;;;;55.33;45.00;;;;;9.23;53.68;102383.00;5077281;27;45296;-71
2022/03/20 10:30:58;;;;;;;;;58.33;46.00;;;;;9.11;53.57;102367.13;5076487;28;45499;-71
2022/03/20 10:33:24;;;;;;;;;65.67;47.00;;;;;9.13;54.36;102377.66;5077294;27;45306;-71
2022/03/20 10:36:11;;;;;;;;;70.00;54.50;;;;;9.17;53.64;102379.44;5077929;27;45299;-71
2022/03/20 10:38:38;;;;;;;;;61.67;46.33;;;;;9.09;53.86;102383.72;5077926;28;46166;-71
2022/03/20 10:41:26;;;;;;;;;59.33;46.67;;;;;9.10;53.96;102385.50;5093374;27;45592;-71
2022/03/20 10:43:54;;;;;;;;;56.67;44.00;;;;;8.99;53.60;102365.25;5078065;27;45262;-71
2022/03/20 10:46:29;;;;;;;;;63.67;48.00;;;;;9.08;53.80;102380.25;5078120;27;45369;-71
2022/03/20 10:49:03;;;;;;;;;60.00;46.33;;;;;9.06;53.59;102388.09;5077631;27;45331;-71
2022/03/20 10:51:38;;;;;;;;;62.00;47.67;;;;;9.09;53.66;102391.63;5077873;27;45362;-71
2022/03/20 10:54:08;;;;;;;;;61.67;48.00;;;;;8.93;53.79;102365.22;5077810;27;45447;-71
2022/03/20 10:56:35;;;;;;;;;63.67;49.33;;;;;8.94;53.92;102369.56;5077998;27;45369;-71
2022/03/20 10:59:11;;;;;;;;;50.00;37.00;;;;;8.96;53.50;102364.34;5077568;27;46493;-71
2022/03/20 11:01:39;;;;;;;;;63.33;48.00;;;;;9.02;53.78;102374.94;5077638;27;45434;-71
2022/03/20 11:04:06;;;;;;;;;62.67;49.00;;;;;9.17;53.51;102393.44;5077599;27;45312;-71
2022/03/20 11:06:32;;;;;;;;;65.00;49.33;;;;;9.19;53.97;102373.34;5078123;28;45321;-71
2022/03/20 11:08:57;;;;;;;;;62.00;49.00;;;;;9.37;53.26;102390.16;5077309;27;45878;-71
2022/03/20 11:11:25;;;;;;;;;58.33;43.33;;;;;9.45;53.05;102388.44;5077312;28;45392;-71
2022/03/20 11:13:53;;;;;;;;;64.67;49.67;;;;;9.51;52.96;102390.25;5077660;27;45171;-71
2022/03/20 11:16:24;;;;;;;;;64.33;48.67;;;;;9.55;52.89;102369.25;5077746;27;45451;-71
2022/03/20 11:18:52;;;;;;;;;56.67;45.00;;;;;9.69;52.43;102369.34;5077354;27;46187;-71
2022/03/20 11:21:22;;;;;;;;;61.00;48.00;;;;;10.00;52.00;102395.00;5077314;28;45195;-71
2022/03/20 11:23:50;;;;;;;;;59.00;47.00;;;;;10.02;51.47;102382.72;5077342;27;45286;-71
2022/03/20 11:26:18;;;;;;;;;58.00;45.33;;;;;10.17;51.51;102374.91;5077398;27;45348;-71
2022/03/20 11:28:48;;;;;;;;;62.67;48.33;;;;;10.48;51.13;102390.00;5077209;27;45393;-71
2022/03/20 11:31:14;;;;;;;;;58.00;45.33;;;;;10.70;50.49;102385.69;5077225;28;45455;-71
2022/03/20 11:33:42;;;;;;;;;62.00;49.00;;;;;10.84;49.79;102381.34;5077514;27;45304;-71
2022/03/20 11:36:08;;;;;;;;;62.67;48.67;;;;;10.85;49.53;102374.31;5077476;27;45159;-71
2022/03/20 11:38:35;;;;;;;;;61.33;48.00;;;;;10.97;49.16;102383.13;5077298;27;45554;-71
2022/03/20 11:41:23;;;;;;;;;53.67;43.33;;;;;11.22;49.02;102393.72;5077349;27;45324;-71
2022/03/20 11:44:20;;;;;;;;;54.33;41.67;;;;;11.39;49.35;102391.09;5076911;27;45505;-71
2022/03/20 11:46:47;;;;;;;;;59.33;45.33;;;;;11.41;47.96;102394.59;5077579;27;45264;-71
2022/03/20 11:49:19;;;;;;;;;55.67;38.00;;;;;11.48;48.47;102393.72;5076966;27;45214;-71
2022/03/20 11:51:52;;;;;;;;;58.00;46.00;;;;;11.76;48.30;102399.00;5076864;27;45922;-71